Time;durP1;ratioP1;P1;durP2;ratioP2;P2;SDS_P1;SDS_P2;PMS_P1;PMS_P2;Temp;Humidity;BMP_temperature;BMP_pressure;BME280_temperature;BME280_humidity;BME280_pressure;Samples;Min_cycle;Max_cycle;Signal;HPM_P1;HPM_P2
2022/01/16 00:00:49;;;;;;;47.63;23.17;;;;;;;-1.94;99.74;99479.63;4990108;28;20192;-68
2022/01/16 00:06:02;;;;;;;47.23;21.50;;;;;;;-1.85;99.96;99504.09;5010389;28;20198;-66
2022/01/16 00:08:29;;;;;;;48.77;21.07;;;;;;;-1.88;98.84;99516.13;5010234;28;20222;-66
2022/01/16 00:10:55;;;;;;;67.97;33.43;;;;;;;-1.86;98.79;99522.03;5010077;28;20192;-66
2022/01/16 00:13:23;;;;;;;51.47;25.37;;;;;;;-1.87;99.60;99525.47;5009725;28;20196;-66
2022/01/16 00:15:50;;;;;;;61.33;29.13;;;;;;;-1.89;99.71;99525.53;4987104;28;20198;-66
2022/01/16 00:18:22;;;;;;;45.60;21.33;;;;;;;-1.90;98.76;99517.91;4989173;28;20218;-66
2022/01/16 00:20:50;;;;;;;43.40;18.53;;;;;;;-1.89;98.06;99524.69;4990452;28;20189;-66
2022/01/16 00:23:24;;;;;;;47.93;21.03;;;;;;;-1.97;98.05;99512.16;4991470;28;20197;-66
2022/01/16 00:25:53;;;;;;;46.90;20.80;;;;;;;-1.94;97.97;99520.56;5009577;28;20183;-66
2022/01/16 00:28:21;;;;;;;50.77;22.73;;;;;;;-1.94;98.26;99519.75;4993920;28;20881;-65
2022/01/16 00:30:48;;;;;;;52.80;23.53;;;;;;;-1.98;98.94;99485.72;5001906;28;20192;-65
2022/01/16 00:33:15;;;;;;;65.77;30.63;;;;;;;-1.98;99.05;99495.94;5002535;28;20206;-65
2022/01/16 00:35:42;;;;;;;55.77;23.50;;;;;;;-1.98;99.55;99497.69;5003918;28;20203;-66
2022/01/16 00:38:09;;;;;;;55.40;23.73;;;;;;;-1.98;99.49;99479.78;5001883;28;20213;-66
2022/01/16 00:40:37;;;;;;;50.17;22.47;;;;;;;-2.02;99.78;99501.22;5001316;28;20199;-66
2022/01/16 00:43:05;;;;;;;41.23;19.80;;;;;;;-2.06;99.21;99499.66;5001161;28;20189;-66
2022/01/16 00:45:34;;;;;;;47.73;20.57;;;;;;;-2.09;99.81;99496.31;4994927;28;20200;-66
2022/01/16 00:48:02;;;;;;;39.70;19.67;;;;;;;-2.13;99.46;99471.72;4995062;28;20217;-66
2022/01/16 00:50:29;;;;;;;44.30;19.63;;;;;;;-2.28;98.65;99490.94;4993543;28;20197;-66
2022/01/16 00:52:56;;;;;;;42.47;19.90;;;;;;;-2.43;97.98;99474.34;4993703;28;20513;-65
2022/01/16 00:55:23;;;;;;;47.10;24.10;;;;;;;-2.59;98.50;99481.66;4991612;28;20436;-66
2022/01/16 00:57:51;;;;;;;48.53;23.33;;;;;;;-2.68;99.58;99475.13;4994050;28;20219;-66
2022/01/16 01:00:18;;;;;;;46.27;20.53;;;;;;;-2.78;100.00;99491.59;4993726;28;20560;-65
2022/01/16 01:02:45;;;;;;;44.23;20.53;;;;;;;-2.83;99.98;99501.13;5003739;28;20204;-66
2022/01/16 01:05:13;;;;;;;41.93;17.87;;;;;;;-2.87;100.00;99502.91;4997251;28;20273;-65
2022/01/16 01:07:40;;;;;;;42.10;18.43;;;;;;;-2.90;100.00;99490.22;5000630;28;20211;-68
2022/01/16 01:10:08;;;;;;;39.77;18.13;;;;;;;-2.94;100.00;99496.31;5001308;28;20199;-68
2022/01/16 01:12:52;;;;;;;46.93;19.73;;;;;;;-2.88;100.00;99513.19;5003655;28;20190;-69
2022/01/16 01:15:21;;;;;;;42.47;18.83;;;;;;;-2.73;100.00;99520.41;4995397;28;20223;-68
2022/01/16 01:17:49;;;;;;;62.70;22.77;;;;;;;-2.76;100.00;99528.19;4994865;28;20293;-68
2022/01/16 01:20:18;;;;;;;66.77;21.40;;;;;;;-2.87;100.00;99472.25;4995693;28;20319;-68
2022/01/16 01:22:48;;;;;;;55.87;20.87;;;;;;;-2.79;100.00;99422.66;4997526;28;20684;-68
2022/01/16 01:25:15;;;;;;;123.45;30.65;;;;;;;-2.92;100.00;99434.97;5000007;28;20444;-67
2022/01/16 01:27:44;;;;;;;161.90;28.70;;;;;;;-2.96;100.00;99431.63;5002498;28;20220;-68
2022/01/16 01:30:12;;;;;;;64.23;23.63;;;;;;;-2.79;100.00;99448.19;4998663;28;20703;-67
2022/01/16 01:32:43;;;;;;;76.47;24.20;;;;;;;-2.80;100.00;99444.81;5001885;28;20195;-68
2022/01/16 01:35:12;;;;;;;75.33;25.20;;;;;;;-2.87;100.00;99461.22;5001687;28;20195;-68
2022/01/16 01:37:40;;;;;;;95.87;34.20;;;;;;;-2.85;100.00;99478.16;5002082;28;20309;-68
2022/01/16 01:40:09;;;;;;;292.63;27.87;;;;;;;-2.96;100.00;99495.50;5001115;28;20200;-68
2022/01/16 01:42:43;;;;;;;85.80;24.33;;;;;;;-2.91;100.00;99503.88;5002356;28;20193;-69
2022/01/16 01:51:04;;;;;;;195.50;22.90;;;;;;;-3.01;100.00;99499.91;4940863;29;20332;-69
2022/01/16 01:53:31;;;;;;;80.47;21.00;;;;;;;-3.04;100.00;99505.09;4976039;28;20208;-68
2022/01/16 01:55:57;;;;;;;115.90;23.90;;;;;;;-3.00;100.00;99496.47;5001898;28;20187;-68
2022/01/16 01:58:24;;;;;;;256.10;26.20;;;;;;;-3.00;100.00;99489.66;5002416;28;20302;-69
2022/01/16 02:00:51;;;;;;;102.60;22.40;;;;;;;-2.96;100.00;99490.41;5001312;28;20187;-68
2022/01/16 02:03:26;;;;;;;62.03;22.60;;;;;;;-2.88;100.00;99501.25;5001881;28;20189;-68
2022/01/16 02:05:53;;;;;;;83.37;22.07;;;;;;;-2.85;100.00;99515.66;5001463;28;20496;-68
2022/01/16 02:08:20;;;;;;;76.53;23.73;;;;;;;-2.82;100.00;99521.50;5001952;28;20225;-68
2022/01/16 02:10:46;;;;;;;54.77;22.13;;;;;;;-2.77;100.00;99530.75;5002043;28;20204;-69
2022/01/16 02:13:21;;;;;;;63.00;22.90;;;;;;;-2.76;100.00;99540.94;4999856;28;20631;-68
2022/01/16 02:35:11;;;;;;;60.17;20.30;;;;;;;-2.76;100.00;99510.28;4974297;28;20204;-68
2022/01/16 02:37:38;;;;;;;54.87;21.37;;;;;;;-2.85;100.00;99506.25;4999560;28;20211;-68
2022/01/16 02:40:14;;;;;;;50.63;20.63;;;;;;;-2.83;100.00;99504.50;5000906;28;20214;-68
2022/01/16 02:42:47;;;;;;;56.43;19.47;;;;;;;-2.74;100.00;99505.13;5000689;28;20198;-67
2022/01/16 02:45:27;;;;;;;54.27;20.90;;;;;;;-2.75;100.00;99506.84;5000260;28;20558;-69
2022/01/16 02:47:54;;;;;;;66.63;21.33;;;;;;;-2.77;100.00;99488.16;5000799;28;20224;-69
2022/01/16 02:50:21;;;;;;;57.07;21.70;;;;;;;-2.70;100.00;99473.47;5001090;28;20579;-68
2022/01/16 02:52:48;;;;;;;55.17;21.77;;;;;;;-2.68;100.00;99474.28;5000581;28;20675;-68
2022/01/16 02:55:16;;;;;;;73.13;21.90;;;;;;;-2.73;100.00;99476.13;5000079;28;20207;-68
2022/01/16 02:57:43;;;;;;;80.47;21.43;;;;;;;-2.82;100.00;99482.34;5000505;28;20222;-69
2022/01/16 03:00:11;;;;;;;51.77;21.23;;;;;;;-2.82;100.00;99472.97;5000088;28;20195;-68
2022/01/16 03:02:38;;;;;;;62.67;21.07;;;;;;;-2.90;100.00;99462.13;5001430;28;20660;-68
2022/01/16 03:05:06;;;;;;;77.17;21.83;;;;;;;-2.95;100.00;99463.97;4999572;28;20199;-68
2022/01/16 03:07:32;;;;;;;57.13;21.23;;;;;;;-2.88;100.00;99459.53;4998503;28;20215;-68
2022/01/16 03:10:20;;;;;;;48.03;20.70;;;;;;;-2.85;100.00;99464.56;5000223;28;20211;-68
2022/01/16 03:12:50;;;;;;;54.33;20.30;;;;;;;-2.86;100.00;99463.72;4998843;28;20191;-68
2022/01/16 03:15:18;;;;;;;51.70;21.53;;;;;;;-2.81;100.00;99471.25;5000008;28;20202;-68
2022/01/16 03:21:53;;;;;;;48.67;19.47;;;;;;;-2.83;100.00;99465.34;4998901;28;20607;-69
2022/01/16 03:23:22;;;;;;;50.97;20.43;;;;;;;-2.81;100.00;99463.59;4964794;28;20198;-68
2022/01/16 03:25:50;;;;;;;46.57;20.33;;;;;;;-2.82;100.00;99472.13;5000015;28;20265;-69
2022/01/16 03:28:19;;;;;;;62.90;20.43;;;;;;;-2.85;100.00;99472.22;4999910;28;20207;-69
2022/01/16 03:30:47;;;;;;;47.43;19.87;;;;;;;-2.79;100.00;99469.50;4997522;28;20195;-68
2022/01/16 03:33:15;;;;;;;65.40;22.33;;;;;;;-2.76;100.00;99473.66;5000264;28;20243;-68
2022/01/16 03:35:42;;;;;;;59.73;22.23;;;;;;;-2.77;100.00;99469.44;4999097;28;20290;-68
2022/01/16 03:38:09;;;;;;;64.37;22.00;;;;;;;-2.69;100.00;99467.47;5000225;28;20414;-68
2022/01/16 03:40:36;;;;;;;89.13;22.67;;;;;;;-2.86;100.00;99468.81;5001580;28;20185;-67
2022/01/16 03:43:12;;;;;;;110.03;22.77;;;;;;;-2.87;100.00;99467.16;5000557;28;20199;-72
2022/01/16 03:45:41;;;;;;;75.03;22.83;;;;;;;-2.86;100.00;99466.25;4998495;28;20297;-73
2022/01/16 03:48:08;;;;;;;80.30;21.70;;;;;;;-2.85;100.00;99480.72;5000640;28;20245;-68
2022/01/16 03:50:36;;;;;;;73.47;22.67;;;;;;;-2.84;100.00;99467.06;4997902;28;20270;-69
2022/01/16 03:53:03;;;;;;;104.87;22.87;;;;;;;-2.80;100.00;99478.03;4999763;28;20189;-66
2022/01/16 03:55:30;;;;;;;102.13;21.93;;;;;;;-2.87;100.00;99472.25;4999720;28;20663;-72
2022/01/16 03:57:57;;;;;;;62.07;21.63;;;;;;;-2.85;100.00;99480.72;4999178;28;20310;-66
2022/01/16 04:00:24;;;;;;;53.50;20.77;;;;;;;-2.94;100.00;99472.50;4999730;28;20202;-66
2022/01/16 04:02:53;;;;;;;61.80;21.20;;;;;;;-2.94;100.00;99478.41;4997118;28;20649;-66
2022/01/16 04:05:20;;;;;;;62.80;20.83;;;;;;;-2.92;100.00;99486.88;4997609;28;20199;-66
2022/01/16 04:07:47;;;;;;;75.17;21.73;;;;;;;-2.89;100.00;99484.22;5000150;28;20309;-69
2022/01/16 04:10:14;;;;;;;49.30;20.23;;;;;;;-2.84;100.00;99491.78;4999468;28;20239;-69
2022/01/16 04:12:41;;;;;;;60.10;22.57;;;;;;;-2.84;100.00;99491.78;4999096;28;20211;-69
2022/01/16 04:17:55;;;;;;;95.20;22.53;;;;;;;-3.06;100.00;99489.84;4999884;28;20218;-69
2022/01/16 04:20:22;;;;;;;51.53;20.50;;;;;;;-3.04;100.00;99493.19;5000131;28;20277;-69
2022/01/16 04:22:48;;;;;;;78.93;22.50;;;;;;;-3.01;100.00;99492.25;4999112;28;20202;-68
2022/01/16 04:25:18;;;;;;;58.40;21.73;;;;;;;-3.00;100.00;99488.81;4998773;28;20201;-69
2022/01/16 04:27:45;;;;;;;79.03;22.67;;;;;;;-3.08;100.00;99499.25;4999124;28;20218;-69
2022/01/16 04:30:13;;;;;;;66.90;21.37;;;;;;;-3.12;100.00;99505.34;4997877;28;20236;-68
2022/01/16 04:32:40;;;;;;;95.77;22.87;;;;;;;-3.11;100.00;99504.44;4999522;28;20193;-69
2022/01/16 04:35:08;;;;;;;66.83;23.20;;;;;;;-3.20;100.00;99503.00;4999449;28;20366;-69
2022/01/16 04:37:35;;;;;;;81.37;22.77;;;;;;;-3.18;100.00;99496.09;4998741;28;20234;-68
2022/01/16 04:40:03;;;;;;;84.50;21.97;;;;;;;-3.18;100.00;99493.56;5000575;28;21100;-69
2022/01/16 04:45:15;;;;;;;62.53;21.30;;;;;;;-3.20;100.00;99497.91;4997563;28;20558;-68
2022/01/16 04:47:43;;;;;;;61.47;22.90;;;;;;;-3.21;100.00;99480.91;4997520;28;20221;-68
2022/01/16 04:50:13;;;;;;;72.57;23.93;;;;;;;-3.18;100.00;99479.97;4999157;28;20202;-69
2022/01/16 04:52:42;;;;;;;84.87;22.77;;;;;;;-3.17;100.00;99476.53;4999425;28;20195;-68
2022/01/16 04:55:10;;;;;;;58.17;22.73;;;;;;;-3.12;100.00;99467.03;4998640;28;20319;-66
2022/01/16 04:57:38;;;;;;;77.97;22.50;;;;;;;-3.11;100.00;99463.59;4998635;28;20308;-66
2022/01/16 05:00:09;;;;;;;54.07;21.97;;;;;;;-3.14;100.00;99459.38;4999244;28;20200;-66
2022/01/16 05:02:36;;;;;;;55.83;21.53;;;;;;;-3.08;100.00;99471.16;5000183;28;20237;-66
2022/01/16 05:05:04;;;;;;;54.67;21.17;;;;;;;-3.11;100.00;99464.41;4997997;28;20195;-66
2022/01/16 05:07:32;;;;;;;55.60;22.43;;;;;;;-3.09;100.00;99466.09;4999708;28;20749;-66
2022/01/16 05:09:59;;;;;;;54.23;21.37;;;;;;;-3.13;100.00;99467.91;4999721;28;20199;-66
2022/01/16 05:12:32;;;;;;;50.50;20.83;;;;;;;-3.13;100.00;99473.84;4998973;28;20187;-66
2022/01/16 05:17:44;;;;;;;53.07;21.33;;;;;;;-3.16;100.00;99485.88;5002772;28;20277;-66
2022/01/16 05:20:11;;;;;;;59.70;23.37;;;;;;;-3.09;100.00;99496.72;4998765;28;20194;-65
2022/01/16 05:22:40;;;;;;;56.83;23.13;;;;;;;-3.08;100.00;99509.47;5004297;28;20194;-66
2022/01/16 05:25:10;;;;;;;53.37;21.93;;;;;;;-3.15;100.00;99496.03;5002826;28;20190;-66
2022/01/16 05:27:37;;;;;;;57.70;22.10;;;;;;;-3.14;100.00;99504.53;5002761;28;20205;-66
2022/01/16 05:30:05;;;;;;;62.60;21.50;;;;;;;-3.23;100.00;99500.53;5002771;28;20222;-67
2022/01/16 05:32:32;;;;;;;61.07;23.57;;;;;;;-3.22;100.00;99501.34;5001671;28;20683;-67
2022/01/16 05:34:59;;;;;;;62.93;22.13;;;;;;;-3.35;100.00;99511.06;4999442;28;20191;-67
2022/01/16 05:37:26;;;;;;;128.43;22.07;;;;;;;-3.45;100.00;99520.66;5002176;28;20376;-67
2022/01/16 05:39:54;;;;;;;78.57;23.33;;;;;;;-3.57;100.00;99537.16;5002145;28;20194;-67
2022/01/16 05:42:20;;;;;;;70.47;21.07;;;;;;;-3.60;100.00;99540.59;5001985;28;20208;-67
2022/01/16 05:44:47;;;;;;;59.60;22.70;;;;;;;-3.54;100.00;99547.28;5002521;28;20184;-67
2022/01/16 05:47:14;;;;;;;57.13;23.07;;;;;;;-3.58;100.00;99543.94;5002530;28;20717;-67
2022/01/16 05:49:42;;;;;;;64.77;24.47;;;;;;;-3.54;100.00;99542.19;5001191;28;20237;-66
2022/01/16 05:52:09;;;;;;;78.07;23.03;;;;;;;-3.50;100.00;99543.78;5002535;28;20202;-67
2022/01/16 05:54:36;;;;;;;83.80;23.00;;;;;;;-3.42;100.00;99539.31;5002167;28;20228;-67
2022/01/16 05:57:05;;;;;;;65.70;22.93;;;;;;;-3.45;100.00;99536.84;5000839;28;20322;-66
2022/01/16 05:59:32;;;;;;;70.53;23.07;;;;;;;-3.57;100.00;99544.81;5000216;28;20275;-66
2022/01/16 06:01:59;;;;;;;55.40;21.90;;;;;;;-3.52;100.00;99548.09;5001099;28;20194;-66
2022/01/16 06:04:26;;;;;;;54.87;21.77;;;;;;;-3.47;100.00;99538.59;5002446;28;20193;-67
2022/01/16 06:06:53;;;;;;;57.00;22.93;;;;;;;-3.38;100.00;99541.78;5003219;28;20227;-67
2022/01/16 06:09:19;;;;;;;54.63;21.37;;;;;;;-3.35;100.00;99546.81;5002353;28;20210;-67
2022/01/16 06:11:46;;;;;;;51.83;23.10;;;;;;;-3.33;100.00;99550.16;5000068;28;20231;-67
2022/01/16 06:14:14;;;;;;;59.33;24.17;;;;;;;-3.32;100.00;99542.44;4997377;28;20192;-67
2022/01/16 06:16:41;;;;;;;54.93;22.33;;;;;;;-3.36;100.00;99552.78;4992653;28;20206;-67
2022/01/16 06:19:08;;;;;;;55.33;22.77;;;;;;;-3.26;100.00;99559.34;4992535;28;20657;-67
2022/01/16 06:21:35;;;;;;;49.40;21.20;;;;;;;-3.20;100.00;99555.78;4991363;28;20200;-67
2022/01/16 06:24:01;;;;;;;53.03;21.23;;;;;;;-3.22;100.00;99565.19;4986728;28;20265;-67
2022/01/16 06:26:28;;;;;;;55.37;21.17;;;;;;;-3.21;100.00;99566.88;4992020;28;20188;-67
2022/01/16 06:28:55;;;;;;;49.47;20.37;;;;;;;-3.20;100.00;99569.41;4992780;28;20249;-67
2022/01/16 06:31:23;;;;;;;56.53;21.50;;;;;;;-3.22;100.00;99565.19;4992530;28;20216;-67
2022/01/16 06:33:50;;;;;;;54.13;21.70;;;;;;;-3.27;100.00;99565.31;4991858;28;20196;-67
2022/01/16 06:36:17;;;;;;;52.63;21.37;;;;;;;-3.29;100.00;99559.41;4991095;28;20589;-66
2022/01/16 06:38:45;;;;;;;52.17;20.80;;;;;;;-3.23;100.00;99558.41;4992891;28;20226;-67
2022/01/16 06:41:12;;;;;;;57.67;22.47;;;;;;;-3.33;100.00;99556.09;4992293;28;20196;-67
2022/01/16 06:43:39;;;;;;;48.63;20.27;;;;;;;-3.35;100.00;99552.75;4991086;28;20198;-67
2022/01/16 06:46:06;;;;;;;58.07;22.20;;;;;;;-3.42;100.00;99557.19;4994371;28;20198;-67
2022/01/16 06:48:34;;;;;;;49.83;20.73;;;;;;;-3.43;100.00;99565.72;5001419;28;20227;-67
2022/01/16 06:51:01;;;;;;;58.50;23.03;;;;;;;-3.42;100.00;99581.84;4991732;28;20290;-67
2022/01/16 06:53:28;;;;;;;53.60;22.03;;;;;;;-3.42;100.00;99580.16;4992226;28;20645;-67
2022/01/16 06:55:55;;;;;;;50.97;22.03;;;;;;;-3.37;100.00;99584.31;5007769;28;20256;-67
2022/01/16 06:58:22;;;;;;;41.17;15.33;;;;;;;-3.42;100.00;99589.50;5011798;28;20286;-67
2022/01/16 07:00:49;;;;;;;59.47;23.10;;;;;;;-3.50;100.00;99599.06;5011424;28;20190;-65
2022/01/16 07:03:15;;;;;;;56.83;22.03;;;;;;;-3.46;100.00;99593.03;4994721;28;20204;-67
2022/01/16 07:05:44;;;;;;;54.90;20.97;;;;;;;-3.58;100.00;99599.28;4991813;28;20203;-67
2022/01/16 07:08:12;;;;;;;59.23;22.13;;;;;;;-3.51;100.00;99610.16;5003687;28;20213;-67
2022/01/16 07:10:38;;;;;;;56.63;22.33;;;;;;;-3.53;100.00;99604.25;5011072;28;20214;-67
2022/01/16 07:13:05;;;;;;;66.60;24.17;;;;;;;-3.57;100.00;99616.28;5011704;28;20199;-67
2022/01/16 07:15:32;;;;;;;73.00;25.27;;;;;;;-3.45;100.00;99620.22;5010591;28;20194;-67
2022/01/16 07:17:59;;;;;;;67.67;25.07;;;;;;;-3.53;100.00;99614.47;5011102;28;20218;-67
2022/01/16 07:20:26;;;;;;;69.07;23.33;;;;;;;-3.54;100.00;99634.06;5011089;28;20178;-67
2022/01/16 07:22:54;;;;;;;71.33;24.03;;;;;;;-3.55;100.00;99632.38;5001705;28;20214;-67
2022/01/16 07:25:21;;;;;;;51.20;20.27;;;;;;;-3.49;100.00;99646.69;4998127;28;20544;-67
2022/01/16 07:27:48;;;;;;;60.63;24.10;;;;;;;-3.49;100.00;99639.91;4991172;28;20215;-67
2022/01/16 07:30:15;;;;;;;51.93;21.00;;;;;;;-3.44;100.00;99638.06;4991149;28;20215;-67
2022/01/16 07:32:42;;;;;;;52.97;20.57;;;;;;;-3.50;100.00;99640.78;4986913;28;20191;-66
2022/01/16 07:35:09;;;;;;;60.83;24.30;;;;;;;-3.34;100.00;99640.41;4990822;28;20689;-67
2022/01/16 07:37:36;;;;;;;43.10;19.07;;;;;;;-3.48;100.00;99633.91;4990756;28;20247;-67
2022/01/16 07:40:05;;;;;;;53.47;22.30;;;;;;;-3.49;100.00;99656.91;4990730;28;20187;-66
2022/01/16 07:42:32;;;;;;;44.27;18.40;;;;;;;-3.49;100.00;99659.47;4991388;28;20187;-67
2022/01/16 07:44:59;;;;;;;56.40;21.07;;;;;;;-3.48;100.00;99663.69;4991183;28;20214;-67
2022/01/16 07:47:26;;;;;;;55.70;24.93;;;;;;;-3.41;100.00;99668.63;4990882;28;20218;-67
2022/01/16 07:49:53;;;;;;;61.97;26.67;;;;;;;-3.35;100.00;99677.03;4991231;28;20254;-67
2022/01/16 07:52:19;;;;;;;56.73;23.77;;;;;;;-3.25;100.00;99681.03;4990931;28;20192;-66
2022/01/16 07:54:46;;;;;;;101.00;51.40;;;;;;;-3.27;100.00;99678.50;4990735;28;20269;-67
2022/01/16 07:57:15;;;;;;;62.90;25.33;;;;;;;-3.32;100.00;99690.53;4989543;28;20230;-67
2022/01/16 07:59:41;;;;;;;50.27;23.57;;;;;;;-3.27;100.00;99691.28;4991466;28;20200;-67
2022/01/16 08:02:09;;;;;;;73.53;32.07;;;;;;;-3.21;100.00;99699.66;4997901;28;20202;-67
2022/01/16 08:04:36;;;;;;;63.43;28.80;;;;;;;-3.18;100.00;99702.13;4999509;28;20182;-66
2022/01/16 08:07:04;;;;;;;61.90;26.07;;;;;;;-3.17;100.00;99702.09;4999614;28;20206;-66
2022/01/16 08:09:31;;;;;;;67.27;26.10;;;;;;;-3.13;100.00;99701.13;5010849;28;20187;-67
2022/01/16 08:11:58;;;;;;;45.73;19.53;;;;;;;-3.09;100.00;99701.06;5010224;28;20230;-67
2022/01/16 08:14:26;;;;;;;58.03;26.13;;;;;;;-3.06;100.00;99701.84;5010301;28;20200;-67
2022/01/16 08:16:56;;;;;;;55.43;23.53;;;;;;;-3.05;100.00;99706.06;5010015;28;20188;-67
2022/01/16 08:19:22;;;;;;;57.70;24.90;;;;;;;-2.99;100.00;99707.63;5010751;28;20196;-67
2022/01/16 08:21:49;;;;;;;63.20;24.53;;;;;;;-2.88;100.00;99715.88;5010327;28;20183;-67
2022/01/16 08:24:16;;;;;;;60.27;25.87;;;;;;;-2.88;100.00;99707.38;4996901;28;20662;-67
2022/01/16 08:26:43;;;;;;;59.63;23.70;;;;;;;-2.80;100.00;99710.56;4986056;28;20564;-67
2022/01/16 08:29:10;;;;;;;53.57;23.13;;;;;;;-2.68;100.00;99709.41;4990598;28;20186;-67
2022/01/16 08:31:39;;;;;;;61.30;25.87;;;;;;;-2.62;100.00;99711.81;4990430;28;20223;-67
2022/01/16 08:34:06;;;;;;;78.90;38.30;;;;;;;-2.51;100.00;99714.06;4990573;28;20695;-68
2022/01/16 08:36:33;;;;;;;56.37;25.83;;;;;;;-2.43;100.00;99707.03;4990645;28;20200;-67
2022/01/16 08:39:00;;;;;;;58.53;25.73;;;;;;;-2.38;100.00;99719.72;4990531;28;20212;-67
2022/01/16 08:41:27;;;;;;;57.93;25.63;;;;;;;-2.31;100.00;99710.13;4993680;28;20186;-67
2022/01/16 08:43:54;;;;;;;56.80;26.53;;;;;;;-2.23;100.00;99721.00;4999513;28;20211;-68
2022/01/16 08:46:21;;;;;;;58.53;26.37;;;;;;;-2.18;100.00;99720.88;4991041;28;20210;-68
2022/01/16 08:48:50;;;;;;;63.17;26.40;;;;;;;-2.06;100.00;99724.81;4990646;28;20224;-67
2022/01/16 08:51:17;;;;;;;54.33;25.77;;;;;;;-1.99;100.00;99716.06;4994109;28;20204;-67
2022/01/16 08:53:45;;;;;;;53.27;25.30;;;;;;;-1.83;100.00;99724.97;4993794;28;20652;-67
2022/01/16 08:56:13;;;;;;;54.40;28.10;;;;;;;-1.74;100.00;99726.41;4994990;28;20198;-68
2022/01/16 08:58:40;;;;;;;70.33;31.13;;;;;;;-1.71;99.67;99726.31;4994477;28;20684;-67
2022/01/16 09:01:07;;;;;;;62.42;30.45;;;;;;;-1.54;100.00;99730.94;5000437;28;20430;-68
2022/01/16 09:03:34;;;;;;;70.33;33.47;;;;;;;-1.53;100.00;99731.78;4994902;28;20200;-68
2022/01/16 09:06:02;;;;;;;61.67;30.10;;;;;;;-1.32;99.74;99724.31;4993964;28;20189;-68
2022/01/16 09:08:29;;;;;;;65.93;31.60;;;;;;;-1.19;99.87;99728.19;4993980;28;20217;-68
2022/01/16 09:10:56;;;;;;;60.00;29.77;;;;;;;-0.94;99.72;99719.66;4994284;28;20217;-69
2022/01/16 09:13:23;;;;;;;73.57;32.93;;;;;;;-0.80;98.86;99732.88;4994330;28;20671;-69
2022/01/16 09:15:51;;;;;;;81.27;33.77;;;;;;;-0.62;97.55;99739.13;4993883;28;20196;-69
2022/01/16 09:18:19;;;;;;;58.43;27.17;;;;;;;-0.34;96.40;99745.84;4993423;28;20267;-69
2022/01/16 09:20:47;;;;;;;52.80;26.47;;;;;;;-0.08;94.98;99753.53;4993837;28;20186;-69
2022/01/16 09:23:15;;;;;;;91.90;38.60;;;;;;;-0.02;94.08;99768.72;4993785;28;20192;-69
2022/01/16 09:25:42;;;;;;;71.00;33.17;;;;;;;0.06;93.77;99781.25;4987229;28;20196;-69
2022/01/16 09:28:09;;;;;;;68.47;32.93;;;;;;;0.11;93.61;99777.63;4993154;28;20215;-69
2022/01/16 09:30:36;;;;;;;61.20;28.23;;;;;;;0.21;92.78;99775.56;5005354;28;20204;-69
2022/01/16 09:33:03;;;;;;;66.87;30.50;;;;;;;0.28;92.49;99786.44;5000866;28;20272;-69
2022/01/16 09:35:33;;;;;;;55.80;29.53;;;;;;;0.27;92.37;99789.91;4993185;28;20193;-69
2022/01/16 09:38:00;;;;;;;49.97;26.00;;;;;;;0.38;91.95;99777.50;4989670;28;20288;-69
2022/01/16 09:40:29;;;;;;;67.97;32.20;;;;;;;0.46;92.50;99784.94;4993572;28;20263;-69
2022/01/16 09:42:57;;;;;;;51.33;26.80;;;;;;;0.47;92.03;99791.75;4993671;28;20250;-69
2022/01/16 09:45:24;;;;;;;55.97;27.40;;;;;;;0.56;92.25;99783.66;4992769;28;20196;-69
2022/01/16 09:47:51;;;;;;;49.13;24.63;;;;;;;0.77;91.70;99798.34;4993377;28;20225;-69
2022/01/16 09:50:21;;;;;;;48.00;24.17;;;;;;;0.90;90.63;99798.69;4993275;28;20272;-69
2022/01/16 09:52:49;;;;;;;46.27;21.20;;;;;;;1.07;89.59;99787.72;4993320;28;20197;-69
2022/01/16 09:55:17;;;;;;;41.90;20.97;;;;;;;1.17;88.75;99792.44;4993076;28;20204;-69
2022/01/16 09:57:45;;;;;;;42.33;22.77;;;;;;;1.30;86.59;99809.97;4993185;28;20205;-69
2022/01/16 10:00:15;;;;;;;44.43;20.80;;;;;;;1.38;87.44;99809.63;4992439;28;20216;-69
2022/01/16 10:02:45;;;;;;;44.97;21.63;;;;;;;1.49;88.00;99812.59;5005587;28;20314;-69
2022/01/16 10:05:27;;;;;;;45.63;21.17;;;;;;;1.62;86.86;99830.94;5002561;28;20244;-69
2022/01/16 10:07:55;;;;;;;48.80;23.83;;;;;;;1.59;87.23;99831.91;4973405;28;20305;-70
2022/01/16 10:10:26;;;;;;;39.00;20.37;;;;;;;1.47;87.50;99837.56;4973240;28;20265;-70
2022/01/16 10:13:03;;;;;;;41.97;22.13;;;;;;;1.54;86.55;99841.56;5006961;28;20247;-69
2022/01/16 10:15:30;;;;;;;51.47;24.90;;;;;;;1.41;87.58;99848.09;5012096;28;20184;-69
2022/01/16 10:17:59;;;;;;;47.97;24.53;;;;;;;1.46;86.89;99846.19;5012647;28;20209;-70
2022/01/16 10:20:29;;;;;;;48.83;24.73;;;;;;;1.40;87.16;99838.72;5011979;28;20268;-70
2022/01/16 10:22:58;;;;;;;44.70;22.17;;;;;;;1.35;87.00;99843.22;4995867;28;20200;-69
2022/01/16 10:25:44;;;;;;;40.33;20.43;;;;;;;1.57;86.29;99838.03;4992553;28;20653;-70
2022/01/16 10:28:17;;;;;;;44.07;21.00;;;;;;;1.54;86.49;99839.00;4986808;28;20238;-70
2022/01/16 10:30:46;;;;;;;41.07;19.73;;;;;;;1.60;86.29;99840.47;4992412;28;20715;-70
2022/01/16 10:33:15;;;;;;;38.43;19.03;;;;;;;1.60;85.25;99832.75;4992462;28;20193;-69
2022/01/16 10:35:43;;;;;;;37.93;18.60;;;;;;;1.57;86.58;99832.91;4992319;28;20209;-69
2022/01/16 10:38:12;;;;;;;39.50;21.20;;;;;;;1.57;86.57;99838.88;4992441;28;20240;-69
2022/01/16 10:40:40;;;;;;;44.90;21.03;;;;;;;1.57;87.78;99851.72;4992575;28;20186;-70
2022/01/16 10:43:13;;;;;;;56.00;26.60;;;;;;;1.45;87.66;99850.50;4996224;28;20669;-70
2022/01/16 10:45:43;;;;;;;38.40;18.87;;;;;;;1.42;86.04;99862.66;5002365;28;20217;-69
2022/01/16 10:48:11;;;;;;;39.13;18.83;;;;;;;1.32;87.10;99860.44;4999407;28;20850;-70
2022/01/16 10:50:39;;;;;;;42.47;20.30;;;;;;;1.23;87.58;99862.56;4987892;28;20190;-69
2022/01/16 10:53:08;;;;;;;41.00;19.40;;;;;;;1.22;87.96;99860.88;4989860;28;20259;-70
2022/01/16 10:55:38;;;;;;;40.77;23.53;;;;;;;1.28;87.72;99863.22;4990988;28;20514;-70
2022/01/16 10:58:11;;;;;;;40.60;21.80;;;;;;;1.30;88.34;99866.56;4991687;28;20452;-70
2022/01/16 11:00:39;;;;;;;44.73;22.57;;;;;;;1.33;88.98;99864.69;4991815;28;20184;-70
2022/01/16 11:03:09;;;;;;;40.47;19.70;;;;;;;1.34;86.39;99857.81;4994036;28;20200;-70
2022/01/16 11:05:37;;;;;;;39.10;19.93;;;;;;;1.53;86.06;99854.50;5011427;28;20196;-70
2022/01/16 11:08:07;;;;;;;41.63;20.80;;;;;;;1.57;86.91;99868.94;5011528;28;20243;-69
2022/01/16 11:10:35;;;;;;;41.30;19.80;;;;;;;1.52;86.77;99866.53;5011030;28;20246;-70
2022/01/16 11:13:05;;;;;;;38.97;19.83;;;;;;;1.44;87.56;99861.69;5010877;28;20283;-70
2022/01/16 11:15:35;;;;;;;54.73;22.57;;;;;;;1.54;85.83;99869.88;5010861;28;20185;-70
2022/01/16 11:18:03;;;;;;;54.80;24.97;;;;;;;1.45;87.57;99876.25;5011250;28;20212;-69
2022/01/16 11:20:34;;;;;;;49.77;25.10;;;;;;;1.25;87.30;99874.44;5011354;28;20207;-69
2022/01/16 11:23:06;;;;;;;44.77;22.03;;;;;;;1.25;88.63;99869.28;5009722;28;20298;-69
2022/01/16 11:25:36;;;;;;;53.60;25.10;;;;;;;1.23;88.08;99875.41;4989615;28;20568;-70
2022/01/16 11:28:09;;;;;;;49.00;23.63;;;;;;;1.35;86.83;99879.22;4987188;28;20714;-70
2022/01/16 11:30:38;;;;;;;51.50;25.80;;;;;;;1.30;86.82;99889.72;5000192;28;20272;-70
2022/01/16 11:33:05;;;;;;;70.73;33.67;;;;;;;1.22;88.49;99884.03;4997126;28;20193;-69
2022/01/16 11:35:36;;;;;;;66.97;33.57;;;;;;;1.24;88.99;99887.38;4990689;28;20193;-69
2022/01/16 11:38:04;;;;;;;70.33;33.83;;;;;;;1.25;88.67;99881.34;4988124;28;20212;-70
2022/01/16 11:40:42;;;;;;;65.40;32.07;;;;;;;1.31;88.60;99899.09;4991186;28;20679;-70
2022/01/16 11:43:36;;;;;;;62.90;30.07;;;;;;;1.27;88.30;99898.38;4991720;28;20193;-69
2022/01/16 11:46:15;;;;;;;58.93;30.10;;;;;;;1.26;88.18;99901.03;4987521;28;20215;-70
2022/01/16 11:48:49;;;;;;;57.33;30.43;;;;;;;1.26;88.95;99898.44;4991064;28;20287;-69
2022/01/16 11:51:52;;;;;;;63.70;33.03;;;;;;;1.25;88.50;99882.16;4990730;28;20228;-70
2022/01/16 11:54:31;;;;;;;64.90;32.07;;;;;;;1.35;89.19;99871.50;4989679;28;20624;-70
2022/01/16 11:57:01;;;;;;;51.60;27.77;;;;;;;1.27;88.05;99869.25;4991308;28;20827;-70
2022/01/16 11:59:36;;;;;;;58.37;26.20;;;;;;;1.32;86.89;99863.00;4990892;28;20205;-70